Time;durP1;ratioP1;P1;durP2;ratioP2;P2;SDS_P1;SDS_P2;PMS_P1;PMS_P2;Temp;Humidity;BMP_temperature;BMP_pressure;BME280_temperature;BME280_humidity;BME280_pressure;Samples;Min_cycle;Max_cycle;Signal;HPM_P1;HPM_P2
2022/04/30 00:01:53;;;;;;;9.38;4.70;;;;;;;-146.64;100.00;73759.69;5021554;28;20041;-78
2022/04/30 00:04:18;;;;;;;11.80;4.35;;;;;;;-146.64;100.00;73759.69;5010366;28;20052;-78
2022/04/30 00:06:44;;;;;;;7.35;4.50;;;;;;;-146.64;100.00;74816.84;4995532;28;20401;-78
2022/04/30 00:09:09;;;;;;;7.20;4.38;;;;;;;-146.64;100.00;75081.16;5004583;28;20107;-79
2022/04/30 00:11:34;;;;;;;9.48;4.93;;;;;;;-146.64;100.00;75874.25;5023475;28;20029;-78
2022/04/30 00:13:59;;;;;;;9.15;4.75;;;;;;;-146.64;100.00;77725.41;5001116;28;20060;-77
2022/04/30 00:16:25;;;;;;;9.75;4.65;;;;;;;-146.64;100.00;79048.19;4996856;28;20037;-78
2022/04/30 00:18:50;;;;;;;11.85;4.88;;;;;;;-146.64;100.00;80106.72;4994922;28;20045;-78
2022/04/30 00:21:15;;;;;;;12.57;4.93;;;;;;;-146.64;100.00;80371.41;4995708;28;20053;-79
2022/04/30 00:23:41;;;;;;;8.13;5.35;;;;;;;-146.64;100.00;81695.03;4999377;28;20496;-78
2022/04/30 00:26:07;;;;;;;9.27;5.05;;;;;;;-146.64;100.00;82489.44;5013792;28;20033;-78
2022/04/30 00:28:32;;;;;;;10.15;4.72;;;;;;;-146.64;100.00;83019.13;5019036;28;20061;-78
2022/04/30 00:30:57;;;;;;;9.68;5.22;;;;;;;-146.64;100.00;84078.72;5002348;28;20030;-78
2022/04/30 00:33:23;;;;;;;11.00;5.05;;;;;;;-146.64;100.00;84608.59;5002431;28;20069;-78
2022/04/30 00:35:48;;;;;;;17.17;6.53;;;;;;;-146.64;100.00;84608.59;5012404;28;20033;-78
2022/04/30 00:38:15;;;;;;;7.90;4.80;;;;;;;-146.64;100.00;84343.66;5010810;28;20033;-78
2022/04/30 00:40:42;;;;;;;11.48;5.40;;;;;;;-146.64;100.00;85933.66;5014403;28;20026;-78
2022/04/30 00:43:08;;;;;;;14.70;5.95;;;;;;;-146.64;100.00;84608.59;5004320;28;20038;-78
2022/04/30 00:45:33;;;;;;;15.15;6.25;;;;;;;-146.64;100.00;86728.88;5019690;28;20159;-78
2022/04/30 00:47:59;;;;;;;17.08;5.78;;;;;;;-146.64;100.00;88585.03;5003052;28;20037;-79
2022/04/30 00:50:27;;;;;;;10.88;6.13;;;;;;;-146.64;100.00;89115.53;5026504;28;20044;-79
2022/04/30 00:52:55;;;;;;;10.43;6.05;;;;;;;-146.64;100.00;89380.81;4997194;28;20025;-78
2022/04/30 00:55:22;;;;;;;13.45;6.40;;;;;;;-146.64;100.00;89911.41;5010248;28;20465;-78
2022/04/30 00:57:50;;;;;;;10.30;6.15;;;;;;;-146.64;100.00;90176.72;5008421;28;20022;-78
2022/04/30 01:00:15;;;;;;;15.15;6.53;;;;;;;-146.64;100.00;89380.81;4995098;28;20045;-78
2022/04/30 01:02:41;;;;;;;11.40;6.68;;;;;;;-146.64;100.00;89380.81;4980921;28;20042;-78
2022/04/30 01:05:06;;;;;;;11.65;6.22;;;;;;;-146.64;100.00;88850.28;4998326;28;20045;-79
2022/04/30 01:07:32;;;;;;;16.40;8.60;;;;;;;-146.64;100.00;90707.41;5023037;28;20141;-78
2022/04/30 01:09:58;;;;;;;11.00;7.73;;;;;;;-146.64;100.00;91769.03;4980500;28;20038;-78
2022/04/30 01:12:23;;;;;;;16.27;7.72;;;;;;;-146.64;100.00;92565.41;4993256;28;20442;-79
2022/04/30 01:14:52;;;;;;;15.73;7.78;;;;;;;-146.64;100.00;92565.41;4989605;28;20085;-78
2022/04/30 01:17:18;;;;;;;18.88;9.32;;;;;;;-146.64;100.00;92565.41;5023789;28;20025;-79
2022/04/30 01:19:44;;;;;;;16.10;8.32;;;;;;;-146.64;100.00;92299.94;4994762;28;20378;-78
2022/04/30 01:22:12;;;;;;;17.67;10.02;;;;;;;-146.64;100.00;92830.91;4989833;28;20021;-78
2022/04/30 01:24:37;;;;;;;17.17;9.20;;;;;;;-146.64;100.00;92830.91;5031021;28;20048;-78
2022/04/30 01:27:07;;;;;;;16.08;8.82;;;;;;;-146.64;100.00;92565.41;4997877;28;20042;-79
2022/04/30 01:29:33;;;;;;;20.83;10.15;;;;;;;-146.64;100.00;93096.44;5004547;28;20030;-79
2022/04/30 01:37:28;;;;;;;17.35;10.10;;;;;;;-146.64;100.00;93096.44;5011891;28;20095;-78
2022/04/30 01:39:59;;;;;;;23.73;11.63;;;;;;;-146.64;100.00;92034.47;5011427;28;20045;-78
2022/04/30 01:42:29;;;;;;;19.27;12.07;;;;;;;-146.64;100.00;92565.41;5002418;28;20386;-79
2022/04/30 01:44:57;;;;;;;19.63;10.98;;;;;;;-146.64;100.00;92299.94;5011406;28;20044;-78
2022/04/30 01:47:23;;;;;;;19.13;11.27;;;;;;;-146.64;100.00;91769.03;5014908;28;20025;-78
2022/04/30 01:49:49;;;;;;;24.50;11.43;;;;;;;-146.64;100.00;91769.03;5005844;28;20044;-78
2022/04/30 01:52:15;;;;;;;20.38;10.75;;;;;;;-146.64;100.00;91503.59;4996758;28;20068;-79
2022/04/30 01:54:41;;;;;;;22.55;12.32;;;;;;;-146.64;100.00;90972.78;5004407;28;20030;-78
2022/04/30 01:57:06;;;;;;;21.98;11.18;;;;;;;-146.64;100.00;89911.41;5001691;28;20048;-79
2022/04/30 01:59:32;;;;;;;20.35;10.52;;;;;;;-146.64;100.00;89646.09;5021173;28;20108;-78
2022/04/30 02:01:59;;;;;;;22.52;11.30;;;;;;;-146.64;100.00;89380.81;5008658;28;20045;-78
2022/04/30 02:04:27;;;;;;;;;;;;;;;-146.64;100.00;89380.81;4989469;28;20057;-78
2022/04/30 02:06:52;;;;;;;19.30;10.20;;;;;;;-146.64;100.00;88319.81;5002503;28;20496;-78
2022/04/30 02:09:18;;;;;;;16.95;9.75;;;;;;;-146.64;100.00;86728.88;5017794;28;20025;-78
2022/04/30 02:11:44;;;;;;;21.23;11.95;;;;;;;-146.64;100.00;88054.63;4999041;28;20025;-80
2022/04/30 02:14:14;;;;;;;20.67;11.25;;;;;;;-146.64;100.00;87524.28;5014847;28;20087;-78
2022/04/30 02:16:40;;;;;;;15.57;10.48;;;;;;;-146.64;100.00;86994.00;5017604;28;20039;-77
2022/04/30 02:19:09;;;;;;;18.08;10.55;;;;;;;-146.64;100.00;85933.66;4998766;28;20090;-78
2022/04/30 02:21:36;;;;;;;18.55;11.27;;;;;;;-146.64;100.00;86198.72;4993457;28;20105;-78
2022/04/30 02:24:02;;;;;;;19.92;10.63;;;;;;;-146.64;100.00;85403.56;5012650;28;20057;-77
2022/04/30 02:26:28;;;;;;;17.25;10.82;;;;;;;-146.64;100.00;85668.59;4998038;28;20034;-78
2022/04/30 02:28:57;;;;;;;18.13;9.93;;;;;;;-146.64;100.00;85403.56;5007141;28;20044;-78
2022/04/30 02:31:26;;;;;;;20.77;9.52;;;;;;;-146.64;100.00;85138.56;5005494;28;20033;-78
2022/04/30 02:33:54;;;;;;;17.17;10.32;;;;;;;-146.64;100.00;84608.59;5013264;28;20112;-77
2022/04/30 02:36:25;;;;;;;17.08;9.70;;;;;;;-146.64;100.00;83284.00;4997245;28;20049;-78
2022/04/30 02:38:50;;;;;;;18.30;10.00;;;;;;;-146.64;100.00;83813.78;5003134;28;20350;-78
2022/04/30 02:41:16;;;;;;;18.83;11.00;;;;;;;-146.64;100.00;83284.00;5021894;28;20080;-78
2022/04/30 02:43:41;;;;;;;13.63;9.65;;;;;;;-146.64;100.00;83284.00;5011311;28;20029;-78
2022/04/30 02:46:06;;;;;;;15.50;9.55;;;;;;;-146.64;100.00;84078.72;5013579;28;20493;-78
2022/04/30 02:48:32;;;;;;;16.60;10.63;;;;;;;-146.64;100.00;83813.78;4995064;28;20048;-79
2022/04/30 02:51:00;;;;;;;19.83;10.02;;;;;;;-146.64;100.00;84343.66;5006414;28;20037;-78
2022/04/30 02:53:25;;;;;;;19.23;10.20;;;;;;;-146.64;100.00;84608.59;5019330;28;20044;-78
2022/04/30 02:55:51;;;;;;;16.63;9.32;;;;;;;-146.64;100.00;85138.56;4999012;28;20030;-78
2022/04/30 03:01:00;;;;;;;25.73;10.40;;;;;;;-146.64;100.00;84608.59;5005376;28;20164;-78
2022/04/30 03:03:29;;;;;;;16.70;10.38;;;;;;;-146.64;100.00;84343.66;5018312;28;20037;-79
2022/04/30 03:05:57;;;;;;;18.63;9.65;;;;;;;-146.64;100.00;85138.56;5026796;28;20029;-78
2022/04/30 03:08:25;;;;;;;22.73;10.00;;;;;;;-146.64;100.00;85403.56;4999411;28;20030;-78
2022/04/30 03:10:55;;;;;;;13.68;9.48;;;;;;;-146.64;100.00;86198.72;5004626;28;20029;-78
2022/04/30 03:13:22;;;;;;;15.50;9.13;;;;;;;-146.64;100.00;86994.00;5016312;28;20044;-78
2022/04/30 03:15:49;;;;;;;15.05;9.77;;;;;;;-146.64;100.00;88850.28;5007444;28;20036;-78
2022/04/30 03:23:44;;;;;;;15.40;9.35;;;;;;;-146.64;100.00;90442.06;5002760;28;20049;-78
2022/04/30 03:26:11;;;;;;;13.95;9.98;;;;;;;-146.64;100.00;90176.72;5020074;28;20429;-78
2022/04/30 03:28:38;;;;;;;18.70;9.50;;;;;;;-146.64;100.00;89646.09;5024152;28;20525;-78
2022/04/30 03:31:04;;;;;;;19.48;9.43;;;;;;;-146.64;100.00;88585.03;5004340;28;20025;-78
2022/04/30 03:33:30;;;;;;;20.83;10.63;;;;;;;-146.64;100.00;88054.63;4999037;28;20087;-78
2022/04/30 03:35:55;;;;;;;17.33;9.93;;;;;;;-146.64;100.00;88319.81;4995643;28;20440;-78
2022/04/30 03:38:20;;;;;;;12.73;9.55;;;;;;;-146.64;100.00;89646.09;5015831;28;20089;-78
2022/04/30 03:40:46;;;;;;;16.30;9.23;;;;;;;-146.64;100.00;90176.72;4993696;28;20445;-78
2022/04/30 03:43:11;;;;;;;16.70;9.57;;;;;;;-146.64;100.00;90442.06;5014170;28;20061;-78
2022/04/30 03:45:36;;;;;;;12.38;9.15;;;;;;;-146.64;100.00;90707.41;5018205;28;20022;-78
2022/04/30 03:48:03;;;;;;;18.23;9.60;;;;;;;-146.64;100.00;90442.06;5003598;28;20029;-78
2022/04/30 03:50:28;;;;;;;20.40;8.55;;;;;;;-146.64;100.00;89911.41;4991667;28;20068;-79
2022/04/30 03:52:54;;;;;;;16.27;8.63;;;;;;;-146.64;100.00;90707.41;4995542;28;20124;-78
2022/04/30 03:55:20;;;;;;;13.23;7.70;;;;;;;-146.64;100.00;90442.06;5003124;28;20056;-78
2022/04/30 03:57:45;;;;;;;11.85;8.60;;;;;;;-146.64;100.00;90176.72;5013326;28;20085;-79
2022/04/30 04:00:11;;;;;;;14.32;8.70;;;;;;;-146.64;100.00;90176.72;4999627;28;20211;-78
2022/04/30 04:02:39;;;;;;;19.17;8.25;;;;;;;-146.64;100.00;90442.06;5016401;28;20045;-79
2022/04/30 04:05:06;;;;;;;14.32;7.95;;;;;;;-146.64;100.00;90442.06;5001646;28;20132;-79
2022/04/30 04:07:32;;;;;;;15.45;8.32;;;;;;;-146.64;100.00;89646.09;5002204;28;20433;-79
2022/04/30 04:09:58;;;;;;;13.48;8.23;;;;;;;-146.64;100.00;89380.81;5016828;28;20045;-79
2022/04/30 04:12:23;;;;;;;17.83;9.07;;;;;;;-146.64;100.00;88054.63;5028364;28;20040;-78
2022/04/30 04:17:38;;;;;;;12.68;7.47;;;;;;;-146.64;100.00;89115.53;5018658;28;20135;-79
2022/04/30 04:20:09;;;;;;;11.38;7.40;;;;;;;-146.64;100.00;88585.03;5001512;28;20022;-78
2022/04/30 04:22:35;;;;;;;8.48;6.97;;;;;;;-146.64;100.00;87259.13;5013641;28;20389;-78
2022/04/30 04:27:45;;;;;;;15.13;7.70;;;;;;;-146.64;100.00;84078.72;5015604;28;20099;-78
2022/04/30 04:30:10;;;;;;;12.15;7.32;;;;;;;-146.64;100.00;83284.00;4997339;28;20085;-78
2022/04/30 04:32:35;;;;;;;9.50;6.90;;;;;;;-146.64;100.00;83019.13;5006092;28;20037;-78
2022/04/30 04:35:01;;;;;;;11.40;7.03;;;;;;;-146.64;100.00;80900.81;5001231;28;20443;-78
2022/04/30 04:37:27;;;;;;;13.20;7.07;;;;;;;-146.64;100.00;79312.78;5013659;28;20044;-78
2022/04/30 04:39:52;;;;;;;13.47;7.23;;;;;;;-146.64;100.00;77460.91;5016240;28;20378;-79
2022/04/30 04:42:19;;;;;;;17.98;6.30;;;;;;;-146.64;100.00;75345.50;5020350;28;20033;-78
2022/04/30 04:44:45;;;;;;;11.02;6.50;;;;;;;-146.64;100.00;72438.66;5011862;28;20559;-78
2022/04/30 04:47:10;;;;;;;12.38;6.60;;;;;;;-146.64;100.00;71382.16;5022828;28;20066;-79
2022/04/30 04:49:35;;;;;;;10.68;6.57;;;;;;;-146.64;100.00;66895.09;5031103;28;20128;-79
2022/04/30 04:52:01;;;;;;;8.30;6.55;;;;;;;-146.64;100.00;63730.81;4997324;28;20103;-78
2022/04/30 04:54:28;;;;;;;11.05;6.53;;;;;;;-146.64;100.00;60832.41;4994442;28;20125;-78
2022/04/30 04:56:53;;;;;;;13.05;6.38;;;;;;;-146.64;100.00;56883.47;5007107;28;20031;-77
2022/04/30 04:59:18;;;;;;;12.98;5.97;;;;;;;-146.64;100.00;51755.69;5022885;28;20029;-78
2022/04/30 05:01:44;;;;;;;10.82;7.13;;;;;;;-146.64;100.00;47856.81;5016314;28;20072;-81
2022/04/30 05:04:10;;;;;;;16.73;5.70;;;;;;;-146.64;100.00;44797.84;5001822;28;20054;-79
2022/04/30 05:06:35;;;;;;;8.80;6.03;;;;;;;-146.64;100.00;43986.34;5005424;28;20060;-79
2022/04/30 05:09:01;;;;;;;7.85;5.70;;;;;;;-146.64;100.00;42138.53;5012437;28;20038;-79
2022/04/30 05:11:26;;;;;;;14.95;6.40;;;;;;;-146.64;100.00;41446.38;5030357;28;20090;-78
2022/04/30 05:13:52;;;;;;;11.57;6.25;;;;;;;-146.64;100.00;41296.88;5008956;28;20058;-79
2022/04/30 05:16:17;;;;;;;10.00;6.15;;;;;;;-146.64;100.00;41950.13;4990958;28;20140;-79
2022/04/30 05:18:42;;;;;;;12.25;6.88;;;;;;;-146.64;100.00;41634.75;5003878;28;20034;-79
2022/04/30 05:21:08;;;;;;;10.07;6.43;;;;;;;-146.64;100.00;40660.13;4994498;28;20041;-78
2022/04/30 05:23:33;;;;;;;12.98;6.20;;;;;;;-146.64;100.00;41024.56;5008698;28;20480;-79
2022/04/30 05:25:59;;;;;;;12.55;6.28;;;;;;;-146.64;100.00;41372.66;5011201;28;20029;-79
2022/04/30 05:28:24;;;;;;;12.32;5.88;;;;;;;-146.64;100.00;40873.03;5013867;28;20133;-79
2022/04/30 05:30:49;;;;;;;11.85;6.15;;;;;;;-146.64;100.00;40420.59;4985397;28;20523;-80
2022/04/30 05:33:14;;;;;;;12.45;5.88;;;;;;;-146.64;100.00;40131.94;5002337;28;20043;-78
2022/04/30 05:35:40;;;;;;;12.23;5.68;;;;;;;-146.64;100.00;39968.19;4989898;28;20096;-78
2022/04/30 05:38:05;;;;;;;6.43;5.07;;;;;;;-146.64;100.00;39943.63;5016893;28;20033;-78
2022/04/30 05:40:30;;;;;;;9.60;5.55;;;;;;;-146.64;100.00;39939.53;5020873;28;20088;-78
2022/04/30 05:42:56;;;;;;;12.23;5.28;;;;;;;-146.64;100.00;39849.47;5007906;28;20044;-78
2022/04/30 05:45:21;;;;;;;7.65;5.28;;;;;;;-146.64;100.00;39747.13;5003400;28;20090;-78
2022/04/30 05:47:47;;;;;;;10.30;4.60;;;;;;;-146.64;100.00;39698.00;5025509;28;20029;-78
2022/04/30 05:50:12;;;;;;;7.63;4.82;;;;;;;-146.64;100.00;39603.84;5010603;28;20803;-78
2022/04/30 05:52:37;;;;;;;6.85;4.57;;;;;;;-146.64;100.00;39614.09;5011083;28;20389;-78
2022/04/30 05:55:03;;;;;;;5.30;3.95;;;;;;;-146.64;100.00;39554.72;4995875;28;20422;-79
2022/04/30 05:57:29;;;;;;;8.88;5.53;;;;;;;-146.64;100.00;39569.06;4985555;28;20041;-78
2022/04/30 05:59:55;;;;;;;12.40;5.13;;;;;;;-146.64;100.00;39509.72;4988895;28;20482;-78
2022/04/30 06:02:21;;;;;;;7.53;4.85;;;;;;;-146.64;100.00;39485.16;4985311;28;20034;-78
2022/04/30 06:04:46;;;;;;;9.18;5.07;;;;;;;-146.64;100.00;39419.66;4991442;28;20026;-78
2022/04/30 06:07:12;;;;;;;16.75;5.68;;;;;;;-146.64;100.00;39458.53;4993986;28;20034;-79
2022/04/30 06:09:37;;;;;;;10.10;5.32;;;;;;;-146.64;100.00;39419.66;5009696;28;20034;-78
2022/04/30 06:12:03;;;;;;;10.48;4.68;;;;;;;-146.64;100.00;39391.00;4998753;28;20029;-79
2022/04/30 06:14:28;;;;;;;9.43;5.18;;;;;;;-146.64;100.00;39370.53;5007439;28;20033;-79
2022/04/30 06:16:55;;;;;;;11.10;6.22;;;;;;;-146.64;100.00;39362.34;5010604;28;20037;-79
2022/04/30 06:19:21;;;;;;;7.53;6.15;;;;;;;-146.64;100.00;39272.28;5032162;28;20188;-79
2022/04/30 06:21:48;;;;;;;18.55;7.32;;;;;;;-146.64;100.00;39282.53;5009461;28;20057;-80
2022/04/30 06:24:14;;;;;;;13.55;7.47;;;;;;;-146.64;100.00;39300.94;4993537;28;20041;-79
2022/04/30 06:26:39;;;;;;;10.02;7.13;;;;;;;-146.64;100.00;39225.22;4984616;28;20022;-79
2022/04/30 06:29:05;;;;;;;14.73;8.02;;;;;;;-146.64;100.00;39286.63;5006681;28;20108;-78
2022/04/30 06:31:30;;;;;;;9.93;7.47;;;;;;;-146.64;100.00;39292.75;4999761;28;20276;-79
2022/04/30 06:33:56;;;;;;;12.30;7.47;;;;;;;-146.64;100.00;39300.94;4998290;28;20485;-79
2022/04/30 06:36:22;;;;;;;12.77;7.70;;;;;;;-146.64;100.00;39313.22;4987895;28;20022;-78
2022/04/30 06:38:48;;;;;;;11.43;7.30;;;;;;;-146.64;100.00;39276.38;4996337;28;20130;-79
2022/04/30 06:41:14;;;;;;;11.63;7.47;;;;;;;-146.64;100.00;39272.28;5000754;28;20075;-79
2022/04/30 06:43:41;;;;;;;14.93;7.70;;;;;;;-146.64;100.00;39184.28;4996623;28;20590;-78
2022/04/30 06:46:07;;;;;;;10.13;7.30;;;;;;;-146.64;100.00;39272.28;5015272;28;20056;-79
2022/04/30 06:48:33;;;;;;;11.77;8.38;;;;;;;-146.64;100.00;39227.28;5011554;28;20045;-79
2022/04/30 06:50:59;;;;;;;13.27;8.30;;;;;;;-146.64;100.00;39266.16;5016687;28;20029;-80
2022/04/30 06:58:55;;;;;;;13.00;7.47;;;;;;;-146.64;100.00;39227.28;5014263;28;20053;-79
2022/04/30 07:04:05;;;;;;;12.45;6.78;;;;;;;-146.64;100.00;39223.19;5013494;28;20092;-79
2022/04/30 07:06:32;;;;;;;9.18;5.72;;;;;;;-146.64;100.00;39245.69;4997019;28;20409;-79
2022/04/30 07:08:57;;;;;;;11.73;6.82;;;;;;;-146.64;100.00;39235.47;4975572;28;20414;-79
2022/04/30 07:11:23;;;;;;;17.90;7.33;;;;;;;-146.64;100.00;39219.09;5002239;28;20105;-79
2022/04/30 07:13:48;;;;;;;10.80;6.67;;;;;;;-146.64;100.00;39221.13;4993579;28;20370;-79
2022/04/30 07:16:14;;;;;;;11.82;6.72;;;;;;;-146.64;100.00;39174.06;5005669;28;20029;-79
2022/04/30 07:18:39;;;;;;;15.43;6.80;;;;;;;-146.64;100.00;39065.59;4998344;28;20403;-79
2022/04/30 07:21:04;;;;;;;11.63;7.00;;;;;;;-146.64;100.00;39071.75;4978769;28;20041;-80
2022/04/30 07:23:30;;;;;;;6.72;5.90;;;;;;;-146.64;100.00;39112.66;4987284;28;20041;-79
2022/04/30 07:25:56;;;;;;;9.20;5.90;;;;;;;-146.64;100.00;39120.84;5024058;28;20029;-78
2022/04/30 07:28:23;;;;;;;10.80;6.15;;;;;;;-146.64;100.00;39118.81;4998712;28;20758;-79
2022/04/30 07:30:48;;;;;;;10.88;6.32;;;;;;;-146.64;100.00;39096.28;5007869;28;20075;-79
2022/04/30 07:33:14;;;;;;;9.90;5.73;;;;;;;-146.64;100.00;39102.44;4997554;28;20037;-79
2022/04/30 07:35:39;;;;;;;7.18;5.70;;;;;;;-146.64;100.00;39127.00;4996935;28;20459;-78
2022/04/30 07:38:05;;;;;;;8.83;6.20;;;;;;;-146.64;100.00;39133.13;5003066;28;20630;-77
2022/04/30 07:40:30;;;;;;;14.03;6.10;;;;;;;-146.64;100.00;39143.38;4986749;28;20029;-77
2022/04/30 07:42:57;;;;;;;11.93;5.95;;;;;;;-146.64;100.00;39110.63;5003145;28;20041;-80
2022/04/30 07:45:22;;;;;;;8.77;5.30;;;;;;;-146.64;100.00;39116.75;4989122;28;20022;-78
2022/04/30 07:47:48;;;;;;;8.68;5.60;;;;;;;-146.64;100.00;39137.22;5003876;28;20076;-78
2022/04/30 07:50:13;;;;;;;13.33;5.97;;;;;;;-146.64;100.00;39141.31;5018197;28;20030;-78
2022/04/30 07:52:38;;;;;;;13.53;5.60;;;;;;;-146.64;100.00;39153.59;5015431;28;20096;-78
2022/04/30 07:55:04;;;;;;;15.63;4.70;;;;;;;-146.64;100.00;39174.06;4992035;28;20424;-78
2022/04/30 07:57:29;;;;;;;11.00;4.53;;;;;;;-146.64;100.00;39133.13;4989699;28;20450;-78
2022/04/30 07:59:55;;;;;;;9.10;4.50;;;;;;;-146.64;100.00;39143.38;5010171;28;20026;-79
2022/04/30 08:02:20;;;;;;;7.88;4.78;;;;;;;-146.64;100.00;39141.31;5004737;28;20091;-78
2022/04/30 08:04:46;;;;;;;13.93;5.33;;;;;;;-146.64;100.00;39026.72;4996803;28;20053;-79
2022/04/30 08:07:11;;;;;;;10.07;5.07;;;;;;;-146.64;100.00;39120.84;5012357;28;20021;-78
2022/04/30 08:09:37;;;;;;;14.77;5.40;;;;;;;-146.64;100.00;39043.09;5012251;28;20038;-78
2022/04/30 08:12:02;;;;;;;10.25;5.05;;;;;;;-146.64;100.00;39041.03;4996419;28;20061;-78
2022/04/30 08:14:28;;;;;;;13.45;5.13;;;;;;;-146.64;100.00;38989.88;4998978;28;20034;-77
2022/04/30 08:16:54;;;;;;;14.90;5.20;;;;;;;-146.64;100.00;39008.28;5005389;28;20030;-79
2022/04/30 08:19:20;;;;;;;11.48;5.60;;;;;;;-146.64;100.00;38981.69;5024707;28;20112;-78
2022/04/30 08:21:46;;;;;;;11.07;5.43;;;;;;;-146.64;100.00;39002.16;4996204;28;20125;-77
2022/04/30 08:24:12;;;;;;;14.32;5.30;;;;;;;-146.64;100.00;38920.31;5019682;28;20038;-80
2022/04/30 08:26:37;;;;;;;10.18;4.43;;;;;;;-146.64;100.00;38928.50;5018210;28;20037;-80
2022/04/30 08:29:03;;;;;;;14.20;4.67;;;;;;;-146.64;100.00;38981.69;5000348;28;20061;-78
2022/04/30 08:31:28;;;;;;;15.97;4.30;;;;;;;-146.64;100.00;38922.34;4994792;28;20033;-79
2022/04/30 08:33:53;;;;;;;8.43;5.00;;;;;;;-146.64;100.00;38854.81;5011318;28;20029;-80
2022/04/30 08:36:19;;;;;;;8.37;4.43;;;;;;;-146.64;100.00;38863.00;5018539;28;20044;-78
2022/04/30 08:38:44;;;;;;;10.40;4.23;;;;;;;-146.64;100.00;38817.97;5000185;28;20492;-78
2022/04/30 08:41:14;;;;;;;8.03;3.93;;;;;;;-146.64;100.00;38695.19;5000221;28;20106;-80
2022/04/30 08:43:39;;;;;;;8.60;4.53;;;;;;;-146.64;100.00;38795.47;5019390;28;20442;-79
2022/04/30 08:46:05;;;;;;;12.10;4.80;;;;;;;-146.64;100.00;38756.59;4986271;28;20135;-79
2022/04/30 08:48:32;;;;;;;13.53;4.77;;;;;;;-146.64;100.00;38682.94;5004928;28;20029;-80
2022/04/30 08:50:57;;;;;;;7.50;3.75;;;;;;;-146.64;94.18;38707.47;4989633;28;20052;-82
2022/04/30 08:53:22;;;;;;;11.97;4.27;;;;;;;-146.64;92.01;38680.88;5012077;28;20473;-80
2022/04/30 08:55:48;;;;;;;10.60;4.50;;;;;;;-146.64;95.44;38611.31;4998781;28;20030;-79
2022/04/30 08:58:13;;;;;;;8.67;4.03;;;;;;;-146.64;88.73;38599.03;5009075;28;20029;-79
2022/04/30 09:00:44;;;;;;;12.50;4.30;;;;;;;-146.64;87.47;38511.03;5006886;28;20026;-80
2022/04/30 09:03:18;;;;;;;8.88;4.38;;;;;;;-146.64;88.21;38615.41;4992322;28;20032;-81
2022/04/30 09:05:43;;;;;;;7.90;4.00;;;;;;;-146.64;92.50;38768.88;4992396;28;20105;-80
2022/04/30 09:08:09;;;;;;;8.20;3.60;;;;;;;-146.64;89.04;38756.59;4994155;28;20041;-82
2022/04/30 09:10:37;;;;;;;10.07;4.30;;;;;;;-146.64;87.24;38752.50;4996577;28;20030;-79
2022/04/30 09:13:07;;;;;;;8.50;3.75;;;;;;;-146.64;88.72;38785.25;5009859;28;20476;-80
2022/04/30 09:15:33;;;;;;;14.82;3.67;;;;;;;-146.64;88.32;38662.47;5008511;28;20036;-79
2022/04/30 09:17:59;;;;;;;5.45;3.50;;;;;;;-146.64;81.75;38511.03;4976830;28;20033;-80
2022/04/30 09:20:25;;;;;;;8.57;4.03;;;;;;;-146.64;81.20;38678.84;5000662;28;20048;-80
2022/04/30 09:22:51;;;;;;;7.53;3.87;;;;;;;-146.64;76.16;38723.84;4986269;28;20279;-81
2022/04/30 09:25:17;;;;;;;5.75;3.47;;;;;;;-146.64;78.05;38705.44;4997580;28;20076;-80
2022/04/30 09:27:51;;;;;;;7.85;3.53;;;;;;;-146.64;75.56;38746.38;4998048;28;20025;-81
2022/04/30 09:30:19;;;;;;;10.05;3.53;;;;;;;-146.64;76.27;38758.63;4990948;28;20054;-80
2022/04/30 09:32:44;;;;;;;5.70;3.33;;;;;;;-146.64;76.35;38850.72;5007370;28;20734;-80
2022/04/30 09:38:04;;;;;;;10.85;3.22;;;;;;;-146.64;81.38;38867.09;4992905;28;20172;-79
2022/04/30 09:40:30;;;;;;;3.80;3.10;;;;;;;-146.64;78.51;38865.06;5008296;28;20089;-80
2022/04/30 09:43:00;;;;;;;8.93;3.47;;;;;;;-146.64;80.48;38910.06;5004620;28;20124;-80
2022/04/30 09:45:31;;;;;;;8.48;3.45;;;;;;;-146.64;82.42;38912.13;4985904;28;20171;-80
2022/04/30 09:47:58;;;;;;;6.15;3.70;;;;;;;-146.64;82.47;38666.56;5009649;28;20365;-80
2022/04/30 09:56:07;;;;;;;6.70;3.53;;;;;;;-146.64;71.76;38678.84;4993463;28;20049;-80
2022/04/30 09:58:35;;;;;;;5.45;3.17;;;;;;;-146.64;71.68;38793.44;4989540;28;20029;-80
2022/04/30 10:01:01;;;;;;;7.95;3.30;;;;;;;-146.64;72.52;38811.84;5000912;28;20036;-79
2022/04/30 10:03:29;;;;;;;3.37;2.77;;;;;;;-146.64;74.11;38838.44;5008629;28;20481;-79
2022/04/30 10:06:13;;;;;;;6.78;3.78;;;;;;;-146.64;75.13;38889.59;5011890;28;20045;-79
2022/04/30 10:08:40;;;;;;;4.20;2.90;;;;;;;-146.64;84.27;38940.75;4995995;28;20030;-79
2022/04/30 10:11:26;;;;;;;4.90;3.17;;;;;;;-146.64;96.80;38963.28;4987045;28;20465;-80
2022/04/30 10:14:22;;;;;;;8.90;3.30;;;;;;;-146.64;98.82;38977.59;4994456;28;20056;-79
2022/04/30 10:17:10;;;;;;;9.43;3.45;;;;;;;-146.64;100.00;38977.59;4991945;28;20042;-79
2022/04/30 10:19:33;;;;;;;16.58;4.95;;;;;;;-146.64;100.00;38969.41;4997299;28;20038;-79
2022/04/30 10:22:17;;;;;;;7.40;3.43;;;;;;;-146.64;100.00;38953.03;4993513;28;20049;-79
2022/04/30 10:24:45;;;;;;;11.85;4.18;;;;;;;-146.64;100.00;38965.31;4993910;28;20081;-79
2022/04/30 10:27:10;;;;;;;10.75;4.10;;;;;;;-146.64;100.00;38936.66;4978956;28;20037;-79
2022/04/30 10:29:35;;;;;;;11.00;4.40;;;;;;;-146.64;100.00;38932.56;4996012;28;20033;-78
2022/04/30 10:32:01;;;;;;;7.05;3.53;;;;;;;-146.64;98.67;38918.25;4985329;28;20621;-79
2022/04/30 10:34:30;;;;;;;3.65;2.80;;;;;;;-146.64;97.07;38948.94;5014458;28;20068;-80
2022/04/30 10:36:56;;;;;;;7.45;3.60;;;;;;;-146.64;97.77;38942.81;4981414;28;20042;-80
2022/04/30 10:39:21;;;;;;;6.73;2.60;;;;;;;-146.64;94.60;38934.63;5010764;28;20079;-79
2022/04/30 10:41:52;;;;;;;5.27;3.20;;;;;;;-146.64;93.76;38920.31;5015070;28;20034;-79
2022/04/30 10:44:32;;;;;;;4.47;2.60;;;;;;;-146.64;90.40;38783.19;4978068;28;20535;-80
2022/04/30 10:47:13;;;;;;;5.07;1.98;;;;;;;-146.64;88.87;38844.59;5010362;28;20120;-79
2022/04/30 10:49:38;;;;;;;2.38;1.83;;;;;;;-146.64;89.84;38721.81;5011776;28;20037;-79
2022/04/30 10:52:04;;;;;;;5.87;2.33;;;;;;;-146.64;88.53;38801.63;4994518;28;20326;-80
2022/04/30 10:54:30;;;;;;;3.27;2.23;;;;;;;-146.64;86.05;38766.81;4994208;28;20414;-79
2022/04/30 10:57:01;;;;;;;3.37;2.23;;;;;;;-146.64;86.39;38760.69;5005920;28;20073;-79
2022/04/30 10:59:26;;;;;;;2.92;1.83;;;;;;;-146.64;80.82;38715.66;4994347;28;20451;-79
2022/04/30 11:01:52;;;;;;;2.17;1.80;;;;;;;-146.64;80.32;38775.00;5009792;28;20113;-79
2022/04/30 11:04:18;;;;;;;3.57;2.27;;;;;;;-146.64;78.07;38703.38;5010414;28;20072;-80
2022/04/30 11:06:46;;;;;;;9.23;2.50;;;;;;;-146.64;77.74;38748.41;5007638;28;20113;-79
2022/04/30 11:09:11;;;;;;;6.57;2.20;;;;;;;-146.64;79.06;38791.38;4994038;28;20075;-79
2022/04/30 11:11:37;;;;;;;6.27;2.70;;;;;;;-146.64;80.58;38756.59;5000527;28;20449;-79
2022/04/30 11:14:04;;;;;;;7.60;2.30;;;;;;;-146.64;81.94;38566.28;5010472;28;20034;-79
2022/04/30 11:16:35;;;;;;;9.48;2.70;;;;;;;-146.64;81.71;38689.06;5011200;28;20054;-79
2022/04/30 11:19:10;;;;;;;7.57;2.90;;;;;;;-146.64;81.27;38666.56;5012029;28;20484;-80
2022/04/30 11:21:37;;;;;;;8.45;2.90;;;;;;;-146.64;80.26;38656.31;4995041;28;20036;-79
2022/04/30 11:24:03;;;;;;;5.00;2.60;;;;;;;-146.64;79.32;38601.06;4993313;28;20069;-80
2022/04/30 11:26:30;;;;;;;7.37;2.50;;;;;;;-146.64;77.74;38482.41;5008981;28;20450;-79
2022/04/30 11:28:56;;;;;;;7.53;2.90;;;;;;;-146.64;78.14;38535.59;5010287;28;20037;-80
2022/04/30 11:31:21;;;;;;;8.20;2.53;;;;;;;-146.64;78.51;38660.41;5007930;28;20025;-80
2022/04/30 11:33:47;;;;;;;4.67;2.50;;;;;;;-146.64;83.05;38711.56;5009933;28;20033;-80
2022/04/30 11:36:12;;;;;;;10.27;3.37;;;;;;;-146.64;81.54;38684.97;4993036;28;20037;-80
2022/04/30 11:38:38;;;;;;;7.10;2.63;;;;;;;-146.64;83.46;38601.06;4977510;28;20037;-79